Time;durP1;ratioP1;P1;durP2;ratioP2;P2;SDS_P1;SDS_P2;PMS_P1;PMS_P2;Temp;Humidity;BMP_temperature;BMP_pressure;BME280_temperature;BME280_humidity;BME280_pressure;Samples;Min_cycle;Max_cycle;Signal;HPM_P1;HPM_P2
2023/05/24 00:01:30;;;;;;;8.50;2.55;;;;;;;7.25;100.00;102326.09;5006529;28;20020;-65
2023/05/24 00:03:59;;;;;;;6.65;2.88;;;;;;;7.20;100.00;102318.91;5006294;28;20105;-64
2023/05/24 00:06:26;;;;;;;7.63;2.42;;;;;;;7.18;100.00;102320.50;4988650;28;20033;-65
2023/05/24 00:08:52;;;;;;;7.22;3.65;;;;;;;7.15;100.00;102322.88;5006925;28;20024;-65
2023/05/24 00:11:18;;;;;;;7.20;2.60;;;;;;;7.15;100.00;102317.72;5006700;28;20021;-64
2023/05/24 00:13:43;;;;;;;8.90;3.10;;;;;;;7.12;100.00;102317.50;5006147;28;20026;-65
2023/05/24 00:16:09;;;;;;;7.95;3.20;;;;;;;7.05;100.00;102308.41;5006882;28;20484;-65
2023/05/24 00:18:40;;;;;;;8.75;2.72;;;;;;;7.02;100.00;102309.88;5006534;28;20462;-64
2023/05/24 00:21:08;;;;;;;8.35;2.78;;;;;;;6.92;100.00;102304.09;5006366;28;20472;-64
2023/05/24 00:23:33;;;;;;;7.35;3.17;;;;;;;6.88;100.00;102294.34;5006453;28;20030;-64
2023/05/24 00:26:00;;;;;;;9.35;3.55;;;;;;;6.84;100.00;102294.91;4989121;28;20079;-64
2023/05/24 00:28:25;;;;;;;8.40;3.00;;;;;;;6.83;100.00;102293.13;5006570;28;20158;-64
2023/05/24 00:30:51;;;;;;;11.23;3.42;;;;;;;6.82;100.00;102293.91;5006150;28;20294;-66
2023/05/24 00:33:16;;;;;;;9.48;3.10;;;;;;;6.79;100.00;102293.69;5006691;28;20537;-64
2023/05/24 00:35:41;;;;;;;10.77;3.35;;;;;;;6.79;100.00;102291.13;5006787;28;20516;-64
2023/05/24 00:38:06;;;;;;;7.55;3.17;;;;;;;6.75;100.00;102290.00;5010145;28;20057;-64
2023/05/24 00:40:32;;;;;;;10.98;3.35;;;;;;;6.71;100.00;102291.47;5009894;28;20030;-65
2023/05/24 00:42:57;;;;;;;8.98;3.25;;;;;;;6.68;100.00;102283.53;5010232;28;20454;-64
2023/05/24 00:45:22;;;;;;;9.18;3.08;;;;;;;6.67;100.00;102284.31;5010169;28;20018;-65
2023/05/24 00:47:48;;;;;;;7.30;3.00;;;;;;;6.62;100.00;102285.66;5010078;28;20025;-65
2023/05/24 00:50:15;;;;;;;10.43;3.20;;;;;;;6.61;100.00;102286.44;5009695;28;20482;-65
2023/05/24 00:52:41;;;;;;;7.13;2.83;;;;;;;6.58;100.00;102288.81;5009861;28;20076;-64
2023/05/24 00:55:08;;;;;;;7.40;2.95;;;;;;;6.60;100.00;102282.97;5009946;28;20022;-64
2023/05/24 00:57:35;;;;;;;11.93;3.83;;;;;;;6.60;100.00;102284.69;5009356;28;20029;-64
2023/05/24 01:00:03;;;;;;;9.18;2.75;;;;;;;6.56;100.00;102285.22;5005979;28;20069;-65
2023/05/24 01:02:29;;;;;;;8.60;2.88;;;;;;;6.51;100.00;102278.84;5001291;28;20022;-65
2023/05/24 01:04:55;;;;;;;8.20;2.65;;;;;;;6.47;100.00;102281.22;5009445;28;20354;-65
2023/05/24 01:07:26;;;;;;;10.38;3.20;;;;;;;6.42;100.00;102279.97;5009745;28;20109;-65
2023/05/24 01:10:02;;;;;;;8.63;3.42;;;;;;;6.41;100.00;102280.75;5009880;28;20145;-66
2023/05/24 01:12:41;;;;;;;8.68;3.35;;;;;;;6.43;100.00;102278.28;5009233;28;20025;-66
2023/05/24 01:15:18;;;;;;;7.45;3.08;;;;;;;6.39;100.00;102272.03;5009660;28;20022;-65
2023/05/24 01:18:00;;;;;;;10.30;3.25;;;;;;;6.37;100.00;102273.59;5008624;28;20026;-66
2023/05/24 01:20:31;;;;;;;9.57;2.97;;;;;;;6.31;100.00;102268.00;5009261;28;20030;-65
2023/05/24 01:23:09;;;;;;;8.55;2.75;;;;;;;6.30;100.00;102268.78;5008371;28;20026;-65
2023/05/24 01:26:02;;;;;;;11.43;2.92;;;;;;;6.23;100.00;102270.03;5008336;28;20057;-65
2023/05/24 01:28:28;;;;;;;7.45;3.55;;;;;;;6.17;100.00;102262.75;5009075;28;20022;-65
2023/05/24 01:30:54;;;;;;;7.72;3.40;;;;;;;6.16;100.00;102266.09;5008689;28;20116;-65
2023/05/24 01:33:20;;;;;;;10.60;3.53;;;;;;;6.11;100.00;102264.88;5009248;28;20030;-65
2023/05/24 01:35:45;;;;;;;9.88;3.10;;;;;;;6.10;100.00;102270.78;5008672;28;20025;-65
2023/05/24 01:38:11;;;;;;;13.07;3.55;;;;;;;6.07;100.00;102268.00;5008639;28;20674;-65
2023/05/24 01:40:39;;;;;;;7.63;3.20;;;;;;;6.04;100.00;102271.22;5008440;28;20022;-65
2023/05/24 01:43:16;;;;;;;5.85;2.85;;;;;;;6.01;100.00;102274.47;5009022;28;20026;-65
2023/05/24 01:46:10;;;;;;;8.88;3.88;;;;;;;5.97;100.00;102261.25;5008458;28;20459;-65
2023/05/24 01:48:54;;;;;;;9.15;3.55;;;;;;;5.98;100.00;102263.94;5007554;28;20086;-66
2023/05/24 01:51:23;;;;;;;10.15;3.58;;;;;;;5.96;100.00;102255.22;5008966;28;20026;-65
2023/05/24 01:53:51;;;;;;;8.27;2.88;;;;;;;5.93;100.00;102255.00;5008748;28;20084;-65
2023/05/24 01:56:19;;;;;;;7.55;3.15;;;;;;;5.95;100.00;102253.44;5009134;28;20025;-65
2023/05/24 01:58:46;;;;;;;10.77;3.25;;;;;;;5.93;100.00;102265.28;5007988;28;20022;-66
2023/05/24 02:01:12;;;;;;;6.90;3.20;;;;;;;5.90;100.00;102265.03;5008734;28;20030;-65
2023/05/24 02:03:38;;;;;;;13.48;4.00;;;;;;;5.87;100.00;102269.97;4990906;28;20022;-66
2023/05/24 02:06:05;;;;;;;13.82;4.32;;;;;;;5.84;100.00;102264.59;5008221;28;20076;-65
2023/05/24 02:08:30;;;;;;;7.13;3.47;;;;;;;5.76;100.00;102266.59;4990763;28;20054;-66
2023/05/24 02:10:55;;;;;;;15.07;4.47;;;;;;;5.75;100.00;102265.72;5008354;28;20481;-66
2023/05/24 02:13:21;;;;;;;12.52;4.18;;;;;;;5.73;100.00;102266.38;5008354;28;20033;-64
2023/05/24 02:15:46;;;;;;;10.63;3.47;;;;;;;5.70;100.00;102267.03;5008003;28;20391;-65
2023/05/24 02:18:12;;;;;;;7.90;3.15;;;;;;;5.67;100.00;102274.50;5007814;28;20136;-65
2023/05/24 02:20:38;;;;;;;9.23;3.90;;;;;;;5.66;100.00;102275.31;5008094;28;20524;-65
2023/05/24 02:23:04;;;;;;;10.57;4.20;;;;;;;5.64;100.00;102272.63;5008232;28;20026;-65
2023/05/24 02:25:30;;;;;;;8.23;3.25;;;;;;;5.64;100.00;102276.88;5007881;28;20022;-65
2023/05/24 02:27:58;;;;;;;11.70;4.10;;;;;;;5.64;100.00;102282.00;5007564;28;20093;-65
2023/05/24 02:30:24;;;;;;;12.98;5.03;;;;;;;5.64;100.00;102272.63;5007932;28;20145;-66
2023/05/24 02:32:49;;;;;;;12.18;3.92;;;;;;;5.63;100.00;102281.09;5007927;28;20033;-65
2023/05/24 02:35:15;;;;;;;8.25;3.90;;;;;;;5.63;100.00;102281.09;5007216;28;20538;-64
2023/05/24 02:37:40;;;;;;;8.73;4.00;;;;;;;5.62;100.00;102275.84;5007619;28;20042;-65
2023/05/24 02:40:06;;;;;;;8.20;3.58;;;;;;;5.62;100.00;102274.19;5007863;28;20021;-65
2023/05/24 02:42:32;;;;;;;10.00;4.10;;;;;;;5.60;100.00;102277.41;5007117;28;20102;-65
2023/05/24 02:44:57;;;;;;;11.32;4.43;;;;;;;5.56;100.00;102272.81;5007876;28;20120;-65
2023/05/24 02:47:22;;;;;;;9.48;3.95;;;;;;;5.51;100.00;102286.22;5007910;28;20056;-66
2023/05/24 02:49:48;;;;;;;14.32;4.03;;;;;;;5.46;100.00;102279.84;5007408;28;20026;-65
2023/05/24 02:52:14;;;;;;;10.90;3.72;;;;;;;5.46;100.00;102279.84;5007078;28;20100;-65
2023/05/24 02:54:40;;;;;;;9.75;3.95;;;;;;;5.45;100.00;102272.88;5007918;28;20021;-65
2023/05/24 02:57:07;;;;;;;9.63;3.95;;;;;;;5.48;100.00;102283.44;5007783;28;20437;-65
2023/05/24 02:59:33;;;;;;;13.20;4.53;;;;;;;5.49;100.00;102276.59;5006045;28;20033;-66
2023/05/24 03:01:58;;;;;;;9.48;3.95;;;;;;;5.51;100.00;102275.03;5007049;28;20026;-65
2023/05/24 03:04:24;;;;;;;10.45;5.00;;;;;;;5.48;100.00;102280.84;4990421;28;20029;-65
2023/05/24 03:06:49;;;;;;;10.18;4.10;;;;;;;5.46;100.00;102279.84;5007306;28;20018;-65
2023/05/24 03:09:15;;;;;;;9.38;4.43;;;;;;;5.48;100.00;102275.72;5007239;28;20477;-66
2023/05/24 03:11:41;;;;;;;10.15;4.20;;;;;;;5.44;100.00;102278.81;5007078;28;20032;-65
2023/05/24 03:14:08;;;;;;;9.60;4.47;;;;;;;5.42;100.00;102272.66;5006922;28;20026;-64
2023/05/24 03:16:34;;;;;;;9.90;4.80;;;;;;;5.38;100.00;102278.34;5006773;28;20049;-66
2023/05/24 03:18:59;;;;;;;12.82;4.63;;;;;;;5.32;100.00;102273.66;5007160;28;20481;-65
2023/05/24 03:21:25;;;;;;;10.85;4.15;;;;;;;5.29;100.00;102266.59;5006948;28;20116;-65
2023/05/24 03:23:50;;;;;;;8.93;3.90;;;;;;;5.28;100.00;102267.38;5007490;28;20104;-66
2023/05/24 03:26:17;;;;;;;9.63;4.63;;;;;;;5.28;100.00;102269.94;5005556;28;20029;-65
2023/05/24 03:28:43;;;;;;;12.10;4.55;;;;;;;5.28;100.00;102269.94;5005409;28;20458;-65
2023/05/24 03:31:08;;;;;;;12.70;4.82;;;;;;;5.29;100.00;102266.59;5005449;28;20117;-65
2023/05/24 03:33:33;;;;;;;10.85;4.47;;;;;;;5.28;100.00;102262.22;5004007;28;20104;-65
2023/05/24 03:35:59;;;;;;;7.35;4.25;;;;;;;5.23;100.00;102262.66;5004807;28;20022;-65
2023/05/24 03:38:24;;;;;;;13.50;4.72;;;;;;;5.19;100.00;102261.53;5004603;28;20080;-66
2023/05/24 03:40:50;;;;;;;9.25;4.10;;;;;;;5.17;100.00;102268.22;5005048;28;20026;-65
2023/05/24 03:43:16;;;;;;;8.90;4.80;;;;;;;5.15;100.00;102272.31;5006381;28;20477;-64
2023/05/24 03:45:41;;;;;;;10.65;5.10;;;;;;;5.12;100.00;102264.38;5006712;28;20101;-65
2023/05/24 03:48:07;;;;;;;13.20;4.97;;;;;;;5.12;100.00;102269.53;5006604;28;20118;-65
2023/05/24 03:50:33;;;;;;;9.60;4.75;;;;;;;5.13;100.00;102271.31;5006399;28;20018;-67
2023/05/24 03:52:58;;;;;;;9.15;5.05;;;;;;;5.10;100.00;102271.09;5007015;28;20026;-66
2023/05/24 03:55:23;;;;;;;10.75;4.95;;;;;;;5.07;100.00;102260.56;5006869;28;20021;-65
2023/05/24 03:57:49;;;;;;;13.35;4.72;;;;;;;5.09;100.00;102265.03;5006585;28;20026;-65
2023/05/24 04:00:14;;;;;;;12.13;5.05;;;;;;;5.11;100.00;102258.34;5006526;28;20057;-65
2023/05/24 04:02:40;;;;;;;11.95;5.25;;;;;;;5.14;100.00;102267.97;5004624;28;20053;-65
2023/05/24 04:05:08;;;;;;;15.25;5.72;;;;;;;5.15;100.00;102268.09;5006837;28;20495;-65
2023/05/24 04:07:33;;;;;;;16.38;5.45;;;;;;;5.16;100.00;102258.72;5004977;28;20022;-65
2023/05/24 04:09:59;;;;;;;13.85;5.57;;;;;;;5.16;100.00;102254.44;5006291;28;20076;-65
2023/05/24 04:12:24;;;;;;;12.18;5.53;;;;;;;5.18;100.00;102264.84;5009522;28;20025;-66
2023/05/24 04:14:50;;;;;;;13.23;5.80;;;;;;;5.20;100.00;102262.41;5010624;28;20359;-66
2023/05/24 04:17:16;;;;;;;12.38;5.68;;;;;;;5.22;100.00;102266.88;5010424;28;20026;-65
2023/05/24 04:19:41;;;;;;;10.15;4.88;;;;;;;5.26;100.00;102274.06;5009857;28;20040;-65
2023/05/24 04:22:06;;;;;;;10.63;5.60;;;;;;;5.27;100.00;102280.97;5010408;28;20018;-65
2023/05/24 04:24:31;;;;;;;10.02;5.40;;;;;;;5.28;100.00;102277.66;4992087;28;20954;-65
2023/05/24 04:26:57;;;;;;;16.65;5.70;;;;;;;5.31;100.00;102273.53;5010809;28;20080;-64
2023/05/24 04:29:25;;;;;;;10.68;6.28;;;;;;;5.35;100.00;102267.81;5009982;28;20457;-64
2023/05/24 04:31:51;;;;;;;13.48;5.90;;;;;;;5.38;100.00;102268.06;5010626;28;20480;-64
2023/05/24 04:34:16;;;;;;;12.70;5.80;;;;;;;5.43;100.00;102266.75;5008347;28;20029;-65
2023/05/24 04:36:41;;;;;;;13.35;5.97;;;;;;;5.48;100.00;102265.44;5009887;28;20049;-64
2023/05/24 04:39:07;;;;;;;9.15;5.80;;;;;;;5.52;100.00;102267.44;5010411;28;20593;-65
2023/05/24 04:41:34;;;;;;;13.77;6.50;;;;;;;5.58;100.00;102269.56;5010139;28;20033;-66
2023/05/24 04:43:59;;;;;;;14.27;7.25;;;;;;;5.64;100.00;102271.72;5010225;28;20041;-65
2023/05/24 04:46:26;;;;;;;9.00;5.50;;;;;;;5.72;100.00;102272.31;5009757;28;20462;-65
2023/05/24 04:48:51;;;;;;;14.18;6.20;;;;;;;5.79;100.00;102273.66;5010341;28;20464;-64
2023/05/24 04:51:16;;;;;;;17.63;6.88;;;;;;;5.86;100.00;102281.06;5010187;28;20060;-65
2023/05/24 04:53:42;;;;;;;11.85;6.40;;;;;;;5.94;100.00;102282.50;4992019;28;20026;-65
2023/05/24 04:56:07;;;;;;;13.73;6.72;;;;;;;6.00;100.00;102272.69;5010048;28;20109;-65
2023/05/24 04:58:33;;;;;;;14.70;6.63;;;;;;;6.07;100.00;102278.28;5009083;28;20030;-66
2023/05/24 05:00:59;;;;;;;13.90;6.90;;;;;;;6.15;100.00;102279.78;5010030;28;20072;-64
2023/05/24 05:03:25;;;;;;;19.15;7.78;;;;;;;6.23;100.00;102283.78;5007893;28;20479;-65
2023/05/24 05:05:50;;;;;;;11.48;7.10;;;;;;;6.31;100.00;102273.16;5010227;28;20591;-64
2023/05/24 05:08:15;;;;;;;18.30;7.97;;;;;;;6.41;100.00;102270.47;5009525;28;20021;-65
2023/05/24 05:10:41;;;;;;;15.95;7.70;;;;;;;6.52;100.00;102272.91;5009458;28;20025;-66
2023/05/24 05:13:06;;;;;;;17.02;7.10;;;;;;;6.61;100.00;102271.00;5009349;28;20113;-65
2023/05/24 05:15:32;;;;;;;14.45;7.88;;;;;;;6.68;100.00;102273.22;5009110;28;20072;-66
2023/05/24 05:17:57;;;;;;;16.48;6.82;;;;;;;6.71;100.00;102272.56;5009338;28;20480;-65
2023/05/24 05:20:23;;;;;;;16.65;7.15;;;;;;;6.80;100.00;102278.34;5009909;28;20022;-65
2023/05/24 05:22:48;;;;;;;13.05;7.22;;;;;;;6.93;100.00;102287.84;5008480;28;20061;-65
2023/05/24 05:25:14;;;;;;;21.42;6.97;;;;;;;7.06;100.00;102283.53;4991656;28;20026;-65
2023/05/24 05:27:39;;;;;;;17.33;8.07;;;;;;;7.18;100.00;102280.91;5007532;28;20041;-64
2023/05/24 05:30:05;;;;;;;14.02;7.60;;;;;;;7.30;100.00;102283.47;5008864;28;20076;-65
2023/05/24 05:32:31;;;;;;;13.93;7.22;;;;;;;7.41;100.00;102292.81;5005432;28;20051;-65
2023/05/24 05:34:56;;;;;;;18.35;7.10;;;;;;;7.54;100.00;102293.63;5008749;28;20022;-65
2023/05/24 05:37:21;;;;;;;12.90;6.40;;;;;;;7.65;100.00;102281.47;5008846;28;20045;-64
2023/05/24 05:39:47;;;;;;;12.55;7.40;;;;;;;7.77;100.00;102289.16;5008396;28;20029;-65
2023/05/24 05:42:13;;;;;;;16.25;7.47;;;;;;;7.91;100.00;102287.50;5009491;28;20022;-66
2023/05/24 05:44:38;;;;;;;15.50;6.75;;;;;;;8.07;100.00;102276.47;5008406;28;20087;-64
2023/05/24 05:47:06;;;;;;;16.02;7.97;;;;;;;8.23;100.00;102282.63;5008603;28;20030;-68
2023/05/24 05:49:35;;;;;;;15.85;7.93;;;;;;;8.39;100.00;102279.34;5008059;28;20048;-65
2023/05/24 05:52:00;;;;;;;16.02;7.35;;;;;;;8.56;100.00;102283.06;4991442;28;20037;-65
2023/05/24 05:54:27;;;;;;;17.58;8.13;;;;;;;8.71;100.00;102285.72;5008480;28;20481;-64
2023/05/24 05:56:52;;;;;;;17.60;9.43;;;;;;;8.92;100.00;102292.13;5008849;28;20563;-66
2023/05/24 05:59:18;;;;;;;15.07;6.70;;;;;;;9.09;100.00;102290.56;5007843;28;20029;-65
2023/05/24 06:01:45;;;;;;;15.25;6.47;;;;;;;9.26;100.00;102294.22;5008287;28;20393;-65
2023/05/24 06:04:11;;;;;;;17.00;7.93;;;;;;;9.46;100.00;102291.94;5008977;28;20501;-64
2023/05/24 06:06:36;;;;;;;18.60;6.53;;;;;;;9.65;100.00;102295.59;5008258;28;20049;-65
2023/05/24 06:09:02;;;;;;;17.42;7.25;;;;;;;9.81;100.00;102295.72;5008560;28;20030;-65
2023/05/24 06:11:27;;;;;;;15.02;6.25;;;;;;;9.98;100.00;102293.22;4990753;28;20045;-66
2023/05/24 06:13:52;;;;;;;13.48;6.15;;;;;;;10.15;100.00;102295.84;5007203;28;20026;-66
2023/05/24 06:16:19;;;;;;;14.50;7.20;;;;;;;10.32;100.00;102299.41;5007775;28;20028;-65
2023/05/24 06:18:46;;;;;;;15.32;6.68;;;;;;;10.46;100.00;102302.78;5007457;28;20521;-66
2023/05/24 06:21:11;;;;;;;15.52;6.10;;;;;;;10.62;100.00;102303.66;5004472;28;20026;-65
2023/05/24 06:23:36;;;;;;;17.35;6.30;;;;;;;10.79;100.00;102305.47;5007815;28;20029;-66
2023/05/24 06:26:02;;;;;;;15.00;6.57;;;;;;;10.98;100.00;102305.59;5008449;28;20029;-65
2023/05/24 06:28:28;;;;;;;17.65;6.40;;;;;;;11.11;100.00;102315.81;5007533;28;20021;-65
2023/05/24 06:30:53;;;;;;;18.83;7.25;;;;;;;11.27;100.00;102312.34;5007907;28;20021;-65
2023/05/24 06:33:18;;;;;;;12.40;5.28;;;;;;;11.47;100.00;102306.41;5007857;28;20408;-65
2023/05/24 06:35:43;;;;;;;15.18;5.80;;;;;;;11.65;100.00;102317.75;5007517;28;20052;-65
2023/05/24 06:38:09;;;;;;;15.43;5.85;;;;;;;11.81;100.00;102309.81;5007867;28;20133;-65
2023/05/24 06:40:34;;;;;;;13.30;5.70;;;;;;;11.99;100.00;102308.16;5000527;28;20659;-65
2023/05/24 06:43:00;;;;;;;15.98;5.68;;;;;;;12.14;100.00;102301.97;5005267;28;20440;-65
2023/05/24 06:45:25;;;;;;;14.68;5.80;;;;;;;12.25;100.00;102303.38;5006386;28;20484;-65
2023/05/24 06:47:50;;;;;;;11.85;6.05;;;;;;;12.41;100.00;102304.09;5006848;28;20474;-66
2023/05/24 06:50:15;;;;;;;13.82;6.70;;;;;;;12.59;100.00;102304.09;5004899;28;20017;-66
2023/05/24 06:52:41;;;;;;;16.52;6.03;;;;;;;12.78;100.00;102309.25;4987185;28;20121;-66
2023/05/24 06:55:06;;;;;;;16.02;6.68;;;;;;;12.94;100.00;102310.84;5004691;28;20091;-65
2023/05/24 06:57:32;;;;;;;16.63;6.43;;;;;;;13.12;100.00;102310.81;5000360;28;20433;-66
2023/05/24 06:59:57;;;;;;;15.00;6.30;;;;;;;13.27;100.00;102314.91;5004199;28;20022;-65
2023/05/24 07:02:26;;;;;;;16.15;6.07;;;;;;;13.45;100.00;102318.31;5004576;28;20025;-66
2023/05/24 07:04:51;;;;;;;15.90;7.03;;;;;;;13.62;99.33;102310.38;5006428;28;20022;-66
2023/05/24 07:07:16;;;;;;;16.05;7.28;;;;;;;13.78;97.87;102305.84;4999206;28;20021;-65
2023/05/24 07:09:43;;;;;;;14.88;6.22;;;;;;;13.87;96.75;102306.22;5005799;28;20018;-66
2023/05/24 07:12:08;;;;;;;14.55;5.72;;;;;;;13.81;95.12;102314.66;5006231;28;20032;-66
2023/05/24 07:14:34;;;;;;;15.25;6.13;;;;;;;13.86;95.83;102316.56;4988242;28;20021;-66
2023/05/24 07:16:59;;;;;;;9.30;5.32;;;;;;;13.94;95.01;102315.19;5006658;28;20033;-65
2023/05/24 07:19:28;;;;;;;16.92;5.75;;;;;;;13.93;92.34;102323.81;5006149;28;20064;-66
2023/05/24 07:21:56;;;;;;;15.82;5.78;;;;;;;13.97;91.14;102315.31;5000662;28;20102;-66
2023/05/24 07:24:22;;;;;;;15.73;5.88;;;;;;;14.02;91.59;102320.72;5002326;28;20053;-65
2023/05/24 07:26:49;;;;;;;16.92;5.72;;;;;;;13.99;89.64;102320.59;5001601;28;20026;-66
2023/05/24 07:29:15;;;;;;;15.23;5.60;;;;;;;13.89;90.69;102325.41;5003080;28;20436;-66
2023/05/24 07:31:40;;;;;;;12.52;5.07;;;;;;;13.87;91.40;102323.59;5006134;28;20072;-66
2023/05/24 07:34:06;;;;;;;14.07;5.30;;;;;;;13.92;90.14;102324.66;4984477;28;20124;-66
2023/05/24 07:36:32;;;;;;;12.30;4.60;;;;;;;13.81;88.06;102325.06;5004961;28;20129;-66
2023/05/24 07:38:58;;;;;;;12.10;4.88;;;;;;;13.90;89.11;102327.22;5003189;28;20099;-65
2023/05/24 07:41:27;;;;;;;16.67;4.75;;;;;;;14.07;87.48;102327.00;5004926;28;20031;-66
2023/05/24 07:43:55;;;;;;;11.55;4.50;;;;;;;14.12;86.26;102335.88;5005619;28;20021;-66
2023/05/24 07:46:21;;;;;;;14.23;4.20;;;;;;;14.19;83.76;102320.50;5009062;28;20049;-65
2023/05/24 07:48:46;;;;;;;12.70;4.35;;;;;;;14.35;84.26;102325.53;4995480;28;20022;-66
2023/05/24 07:51:12;;;;;;;14.20;4.47;;;;;;;14.64;83.62;102319.69;5012808;28;20025;-65
2023/05/24 07:53:37;;;;;;;13.63;4.03;;;;;;;14.89;82.10;102318.03;5009338;28;20385;-66
2023/05/24 07:56:02;;;;;;;11.75;3.97;;;;;;;15.25;78.75;102316.72;5013735;28;20026;-65
2023/05/24 07:58:28;;;;;;;11.50;3.38;;;;;;;15.59;77.04;102324.88;5012478;28;20018;-66
2023/05/24 08:00:53;;;;;;;10.65;4.13;;;;;;;15.89;73.46;102323.22;5005085;28;20018;-66
2023/05/24 08:03:19;;;;;;;10.05;3.50;;;;;;;16.07;73.40;102320.38;5012563;28;20021;-66
2023/05/24 08:05:44;;;;;;;11.38;4.10;;;;;;;16.33;72.75;102320.34;5005087;28;20057;-66
2023/05/24 08:08:09;;;;;;;10.32;3.38;;;;;;;16.67;70.78;102320.50;5013202;28;20486;-65
2023/05/24 08:10:35;;;;;;;11.20;3.65;;;;;;;16.95;70.18;102321.31;5009040;28;20026;-66
2023/05/24 08:13:02;;;;;;;8.20;3.50;;;;;;;17.12;66.37;102321.84;5013154;28;20564;-65
2023/05/24 08:15:27;;;;;;;14.45;4.18;;;;;;;16.85;64.96;102319.25;4994689;28;20135;-66
2023/05/24 08:17:52;;;;;;;12.43;4.55;;;;;;;16.51;66.55;102322.66;5012622;28;20022;-67
2023/05/24 08:20:18;;;;;;;12.20;5.38;;;;;;;16.45;68.55;102319.84;5013203;28;20037;-66
2023/05/24 08:22:43;;;;;;;13.00;4.60;;;;;;;16.50;67.18;102323.47;5012483;28;20099;-65
2023/05/24 08:25:10;;;;;;;13.73;4.97;;;;;;;16.35;69.94;102318.66;5012573;28;20037;-65
2023/05/24 08:27:35;;;;;;;11.57;4.47;;;;;;;16.29;69.52;102314.13;5012899;28;20478;-66
2023/05/24 08:30:02;;;;;;;11.23;4.05;;;;;;;16.17;69.35;102317.22;5012488;28;20112;-66
2023/05/24 08:32:28;;;;;;;11.98;4.45;;;;;;;16.26;70.14;102314.00;5012463;28;20018;-65
2023/05/24 08:34:54;;;;;;;12.40;4.50;;;;;;;16.49;69.71;102315.59;5012902;28;20466;-66
2023/05/24 08:37:21;;;;;;;12.65;4.57;;;;;;;16.65;67.97;102319.56;5009473;28;20042;-66
2023/05/24 08:39:46;;;;;;;16.73;4.70;;;;;;;16.92;66.18;102311.66;5010727;28;20084;-66
2023/05/24 08:42:12;;;;;;;10.98;4.30;;;;;;;17.10;66.60;102310.44;5005489;28;20470;-67
2023/05/24 08:44:51;;;;;;;11.23;4.28;;;;;;;17.12;63.75;102313.09;5003668;28;20470;-67
2023/05/24 08:47:19;;;;;;;9.88;4.25;;;;;;;17.31;63.80;102305.72;5011120;28;20025;-66
2023/05/24 08:49:46;;;;;;;13.43;3.40;;;;;;;17.52;65.84;102298.44;5002449;28;20025;-66
2023/05/24 08:52:11;;;;;;;11.35;3.42;;;;;;;17.85;64.48;102298.38;5011565;28;20029;-66
2023/05/24 08:54:37;;;;;;;9.65;3.55;;;;;;;18.07;62.88;102291.94;5012287;28;20030;-67
2023/05/24 08:57:03;;;;;;;9.93;3.63;;;;;;;18.36;60.74;102293.47;5008677;28;20029;-66
2023/05/24 08:59:28;;;;;;;10.13;2.90;;;;;;;18.55;59.58;102300.00;4998499;28;20159;-66
2023/05/24 09:01:56;;;;;;;7.80;2.65;;;;;;;18.75;59.41;102296.03;5007056;28;20049;-67
2023/05/24 09:04:23;;;;;;;8.55;3.30;;;;;;;18.65;56.32;102290.63;5009535;28;20105;-67
2023/05/24 09:06:50;;;;;;;12.50;3.30;;;;;;;18.78;60.25;102283.00;5008439;28;20026;-66
2023/05/24 09:09:17;;;;;;;10.82;4.35;;;;;;;18.88;59.32;102287.56;5009259;28;20487;-67
2023/05/24 09:11:44;;;;;;;10.40;3.83;;;;;;;18.96;60.00;102291.22;5009178;28;20065;-67
2023/05/24 09:14:10;;;;;;;9.45;3.53;;;;;;;18.97;59.52;102294.75;5008706;28;20038;-67
2023/05/24 09:16:35;;;;;;;12.05;3.60;;;;;;;18.55;56.89;102294.75;5009133;28;20021;-66
2023/05/24 09:19:01;;;;;;;9.82;2.90;;;;;;;18.07;54.06;102296.28;5009068;28;20405;-66
2023/05/24 09:21:26;;;;;;;8.95;3.30;;;;;;;17.87;58.78;102297.56;5001739;28;20069;-66
2023/05/24 09:23:53;;;;;;;11.25;3.53;;;;;;;17.73;59.85;102293.72;5002615;28;20413;-66
2023/05/24 09:26:19;;;;;;;11.10;3.28;;;;;;;17.78;60.09;102292.09;5003116;28;20478;-66
2023/05/24 09:28:46;;;;;;;11.45;3.42;;;;;;;18.03;59.55;102292.69;5008482;28;20502;-66
2023/05/24 09:31:12;;;;;;;9.77;3.80;;;;;;;18.26;59.19;102292.38;5003486;28;20018;-67
2023/05/24 09:33:38;;;;;;;8.07;3.50;;;;;;;18.33;58.76;102298.66;5007909;28;20088;-66
2023/05/24 09:36:05;;;;;;;9.25;3.58;;;;;;;18.58;56.64;102288.72;5008585;28;20060;-67
2023/05/24 09:38:31;;;;;;;8.35;3.00;;;;;;;18.80;58.61;102291.75;5008099;28;20030;-66
2023/05/24 09:41:02;;;;;;;9.43;3.10;;;;;;;18.77;55.60;102278.59;5007761;28;20493;-66
2023/05/24 09:43:30;;;;;;;9.27;3.67;;;;;;;19.06;57.25;102284.44;5005813;28;20026;-67
2023/05/24 09:45:56;;;;;;;7.68;3.22;;;;;;;19.30;56.76;102287.53;5008766;28;20030;-66
2023/05/24 09:48:22;;;;;;;11.63;3.20;;;;;;;19.42;58.23;102285.13;5005302;28;20378;-67
2023/05/24 09:51:10;;;;;;;10.38;3.20;;;;;;;19.27;55.57;102284.81;5008074;28;20021;-66
2023/05/24 09:53:36;;;;;;;8.45;3.15;;;;;;;18.93;55.82;102285.94;5007941;28;20105;-65
2023/05/24 09:56:07;;;;;;;9.13;3.17;;;;;;;18.58;56.52;102278.22;5008586;28;20188;-64
2023/05/24 09:58:33;;;;;;;10.68;3.58;;;;;;;18.51;57.97;102284.19;4986566;28;20389;-63
2023/05/24 10:01:06;;;;;;;7.72;3.28;;;;;;;18.56;57.82;102274.66;5000759;28;20026;-64
2023/05/24 10:03:31;;;;;;;7.03;3.22;;;;;;;18.55;55.03;102273.78;5001382;28;20042;-64
2023/05/24 10:05:57;;;;;;;9.48;3.08;;;;;;;18.66;54.76;102276.63;4980509;28;20534;-63
2023/05/24 10:08:22;;;;;;;8.27;3.30;;;;;;;18.88;54.86;102274.44;5007549;28;20018;-64
2023/05/24 10:10:48;;;;;;;9.27;3.10;;;;;;;18.85;53.71;102284.91;5007147;28;20029;-63
2023/05/24 10:13:16;;;;;;;8.15;3.08;;;;;;;19.00;54.92;102275.53;5003685;28;20061;-65
2023/05/24 10:15:43;;;;;;;6.80;3.13;;;;;;;18.75;53.30;102275.03;5001778;28;20022;-64
2023/05/24 10:18:08;;;;;;;7.93;2.75;;;;;;;18.54;54.41;102276.38;5005285;28;20116;-64
2023/05/24 10:20:34;;;;;;;11.88;3.22;;;;;;;18.29;56.36;102275.81;4998958;28;20038;-65
2023/05/24 10:23:02;;;;;;;7.72;3.10;;;;;;;18.09;57.48;102268.34;4973740;28;20025;-64
2023/05/24 10:25:30;;;;;;;8.00;2.72;;;;;;;17.99;59.30;102273.38;5007824;28;20476;-64
2023/05/24 10:27:59;;;;;;;13.20;3.70;;;;;;;17.90;58.36;102270.53;4994193;28;20063;-64
2023/05/24 10:30:42;;;;;;;9.82;2.97;;;;;;;17.74;58.36;102267.53;5001057;28;20080;-65
2023/05/24 10:33:12;;;;;;;7.60;2.97;;;;;;;17.69;59.00;102263.91;5004490;28;20038;-64
2023/05/24 10:35:38;;;;;;;8.80;3.83;;;;;;;17.69;57.53;102265.66;5004748;28;20454;-66
2023/05/24 10:38:07;;;;;;;10.63;3.88;;;;;;;17.63;58.67;102269.00;4989396;28;20088;-67
2023/05/24 10:40:33;;;;;;;8.05;3.08;;;;;;;17.66;58.90;102263.84;5007058;28;20112;-67
2023/05/24 10:42:59;;;;;;;6.35;2.65;;;;;;;17.51;55.95;102267.84;5006511;28;20064;-66
2023/05/24 10:45:25;;;;;;;6.53;2.88;;;;;;;17.46;59.37;102272.09;5004546;28;20026;-67
2023/05/24 10:47:50;;;;;;;10.30;3.70;;;;;;;17.41;59.96;102260.59;4990597;28;20112;-67
2023/05/24 10:50:19;;;;;;;6.95;2.95;;;;;;;17.37;59.99;102261.38;5007647;28;20454;-66
2023/05/24 10:52:44;;;;;;;5.97;2.35;;;;;;;17.52;60.35;102269.59;5007384;28;20038;-66
2023/05/24 10:55:10;;;;;;;9.05;3.00;;;;;;;17.61;59.18;102265.47;5005368;28;20253;-66
2023/05/24 10:57:37;;;;;;;8.40;3.65;;;;;;;17.67;58.07;102263.00;5006035;28;20029;-66
2023/05/24 11:00:24;;;;;;;8.02;2.80;;;;;;;17.55;57.64;102255.72;5007373;28;20092;-67
2023/05/24 11:02:50;;;;;;;5.75;2.40;;;;;;;17.54;57.72;102260.91;5006683;28;20037;-67
2023/05/24 11:05:17;;;;;;;7.22;3.50;;;;;;;17.51;60.58;102261.72;5006052;28;20037;-67
2023/05/24 11:07:42;;;;;;;8.13;3.10;;;;;;;17.49;58.09;102260.78;4988981;28;20091;-67
2023/05/24 11:10:13;;;;;;;8.73;3.08;;;;;;;17.50;58.99;102266.06;5007638;28;20404;-66
2023/05/24 11:12:43;;;;;;;;;;;;;;;17.48;56.84;102259.91;4990466;28;20017;-66
2023/05/24 11:15:09;;;;;;;7.28;2.53;;;;;;;17.45;56.64;102259.81;5007531;28;20269;-66
2023/05/24 11:18:11;;;;;;;8.40;3.25;;;;;;;17.45;58.48;102258.97;5006696;28;20045;-66